createdAt,value
2019-04-29T00:00:08.361Z,6.55
2019-04-29T00:02:37.504Z,5.97
2019-04-29T00:05:07.485Z,6.13
2019-04-29T00:07:36.751Z,9.17
2019-04-29T00:10:07.154Z,7.63
2019-04-29T00:12:36.379Z,8.75
2019-04-29T00:15:23.707Z,9.33
2019-04-29T00:17:56.501Z,5.80
2019-04-29T00:20:31.682Z,8.23
2019-04-29T00:23:00.709Z,8.37
2019-04-29T00:25:29.545Z,7.20
2019-04-29T00:27:58.612Z,7.90
2019-04-29T00:30:27.321Z,8.27
2019-04-29T00:32:56.095Z,11.48
2019-04-29T00:35:24.863Z,8.08
2019-04-29T00:38:11.856Z,8.35
2019-04-29T00:40:55.314Z,7.50
2019-04-29T00:43:46.546Z,10.90
2019-04-29T00:46:15.616Z,6.73
2019-04-29T00:48:44.322Z,9.00
2019-04-29T00:51:13.200Z,9.10
2019-04-29T00:53:42.417Z,12.67
2019-04-29T00:56:11.268Z,10.37
2019-04-29T00:58:39.992Z,11.27
2019-04-29T01:01:13.172Z,7.97
2019-04-29T01:03:42.131Z,11.60
2019-04-29T01:06:10.964Z,10.63
2019-04-29T01:08:39.880Z,7.13
2019-04-29T01:11:08.656Z,8.57
2019-04-29T01:13:37.358Z,8.00
2019-04-29T01:16:06.164Z,15.87
2019-04-29T01:18:34.871Z,9.57
2019-04-29T01:21:03.671Z,11.70
2019-04-29T01:23:32.492Z,12.90
2019-04-29T01:26:05.512Z,14.27
2019-04-29T01:28:50.713Z,15.75
2019-04-29T01:31:29.637Z,14.68
2019-04-29T01:34:03.898Z,12.25
2019-04-29T01:36:36.957Z,17.07
2019-04-29T01:39:08.972Z,11.18
2019-04-29T01:41:46.869Z,13.80
2019-04-29T01:44:16.487Z,16.93
2019-04-29T01:46:45.215Z,9.57
2019-04-29T01:49:13.916Z,10.27
2019-04-29T01:51:42.631Z,17.13
2019-04-29T01:54:11.330Z,13.97
2019-04-29T01:56:40.372Z,12.00
2019-04-29T01:59:09.204Z,13.23
2019-04-29T02:01:38.005Z,14.17
2019-04-29T02:04:07.170Z,12.20
2019-04-29T02:06:35.897Z,8.90
2019-04-29T02:09:10.018Z,12.20
2019-04-29T02:11:39.453Z,12.03
2019-04-29T02:14:08.303Z,7.80
2019-04-29T02:16:37.010Z,10.37
2019-04-29T02:19:06.150Z,10.33
2019-04-29T02:21:34.932Z,11.10
2019-04-29T02:24:16.344Z,16.50
2019-04-29T02:26:45.066Z,11.03
2019-04-29T02:29:13.760Z,12.03
2019-04-29T02:31:43.465Z,11.95
2019-04-29T02:34:12.281Z,11.43
2019-04-29T02:36:41.020Z,10.17
2019-04-29T02:39:28.721Z,10.70
2019-04-29T02:42:15.591Z,14.40
2019-04-29T02:44:44.475Z,12.82
2019-04-29T02:47:13.258Z,12.28
2019-04-29T02:49:42.045Z,10.37
2019-04-29T02:52:10.838Z,14.33
2019-04-29T02:54:39.882Z,11.37
2019-04-29T02:57:32.489Z,13.90
2019-04-29T03:00:29.743Z,12.97
2019-04-29T03:03:04.702Z,15.90
2019-04-29T03:05:43.893Z,9.10
2019-04-29T03:08:12.701Z,12.75
2019-04-29T03:10:41.485Z,14.17
2019-04-29T03:13:10.386Z,14.90
2019-04-29T03:15:42.207Z,12.63
2019-04-29T03:18:11.262Z,13.70
2019-04-29T03:20:54.919Z,16.30
2019-04-29T03:23:24.036Z,11.10
2019-04-29T03:25:52.727Z,13.00
2019-04-29T03:28:21.468Z,12.47
2019-04-29T03:30:50.524Z,13.23
2019-04-29T03:33:19.290Z,12.93
2019-04-29T03:35:48.221Z,14.50
2019-04-29T03:38:17.043Z,14.93
2019-04-29T03:40:45.813Z,14.60
2019-04-29T03:43:14.546Z,15.03
2019-04-29T03:45:43.242Z,10.50
2019-04-29T03:48:11.975Z,14.20
2019-04-29T03:50:40.668Z,14.57
2019-04-29T03:53:09.376Z,14.13
2019-04-29T03:55:40.544Z,15.10
2019-04-29T03:58:09.029Z,12.47
2019-04-29T04:00:37.908Z,14.10
2019-04-29T04:03:13.661Z,15.20
2019-04-29T04:05:51.310Z,15.03
2019-04-29T04:08:23.481Z,12.13
2019-04-29T04:10:52.190Z,14.17
2019-04-29T04:13:20.898Z,16.73
2019-04-29T04:15:49.662Z,12.43
2019-04-29T04:18:25.283Z,14.00
2019-04-29T04:20:54.070Z,15.57
2019-04-29T04:23:22.875Z,18.27
2019-04-29T04:25:51.667Z,17.07
2019-04-29T04:28:20.393Z,23.73
2019-04-29T04:30:49.213Z,25.67
2019-04-29T04:33:17.943Z,22.60
2019-04-29T04:35:46.735Z,28.70
2019-04-29T04:38:15.561Z,21.63
2019-04-29T04:40:49.060Z,18.67
2019-04-29T04:43:17.888Z,15.77
2019-04-29T04:45:46.614Z,16.17
2019-04-29T04:48:15.333Z,21.43
2019-04-29T04:50:44.119Z,18.23
2019-04-29T04:53:12.950Z,20.33
2019-04-29T04:55:43.809Z,20.30
2019-04-29T04:58:12.512Z,22.53
2019-04-29T05:00:41.673Z,26.12
2019-04-29T05:03:10.414Z,17.92
2019-04-29T05:05:42.380Z,22.43
2019-04-29T05:08:09.979Z,23.73
2019-04-29T05:10:38.974Z,23.37
2019-04-29T05:13:08.057Z,25.88
2019-04-29T05:15:36.824Z,22.35
2019-04-29T05:18:05.634Z,21.97
2019-04-29T05:20:34.671Z,22.90
2019-04-29T05:23:03.388Z,20.68
2019-04-29T05:25:33.388Z,18.65
2019-04-29T05:28:02.641Z,22.63
2019-04-29T05:30:31.426Z,23.87
2019-04-29T05:33:00.508Z,22.77
2019-04-29T05:35:40.211Z,21.40
2019-04-29T05:38:30.841Z,21.27
2019-04-29T05:40:59.894Z,25.83
2019-04-29T05:43:38.394Z,21.00
2019-04-29T05:46:12.873Z,24.50
2019-04-29T05:48:41.636Z,21.12
2019-04-29T05:51:31.000Z,19.30
2019-04-29T05:54:00.945Z,17.93
2019-04-29T05:56:29.687Z,25.40
2019-04-29T05:58:58.592Z,21.50
2019-04-29T06:01:28.913Z,22.30
2019-04-29T06:03:57.917Z,18.17
2019-04-29T06:06:26.705Z,19.87
2019-04-29T06:08:55.481Z,20.53
2019-04-29T06:11:24.218Z,22.10
2019-04-29T06:13:53.029Z,22.13
2019-04-29T06:16:22.707Z,19.60
2019-04-29T06:18:59.802Z,21.03
2019-04-29T06:21:22.362Z,17.50
2019-04-29T06:23:54.293Z,22.55
2019-04-29T06:26:21.957Z,20.20
2019-04-29T06:28:51.057Z,19.23
2019-04-29T06:31:19.981Z,21.27
2019-04-29T06:33:49.060Z,18.73
2019-04-29T06:36:17.856Z,15.55
2019-04-29T06:38:46.567Z,16.47
2019-04-29T06:41:15.313Z,18.67
2019-04-29T06:43:44.955Z,21.27
2019-04-29T06:46:13.760Z,19.40
2019-04-29T06:48:42.560Z,18.37
2019-04-29T06:51:11.305Z,15.30
2019-04-29T06:53:40.129Z,17.77
2019-04-29T06:56:09.391Z,13.33
2019-04-29T06:58:38.605Z,20.00
2019-04-29T07:01:07.528Z,20.47
2019-04-29T07:03:36.404Z,14.85
2019-04-29T07:06:05.525Z,23.37
2019-04-29T07:08:34.316Z,14.37
2019-04-29T07:11:03.142Z,17.97
2019-04-29T07:13:31.985Z,14.27
2019-04-29T07:16:00.701Z,14.70
2019-04-29T07:18:30.597Z,15.30
2019-04-29T07:20:59.355Z,14.10
2019-04-29T07:23:28.087Z,17.37
2019-04-29T07:25:57.066Z,18.60
2019-04-29T07:28:26.111Z,17.70
2019-04-29T07:31:03.003Z,17.37
2019-04-29T07:33:25.747Z,16.60
2019-04-29T07:35:54.452Z,14.03
2019-04-29T07:38:23.506Z,20.07
2019-04-29T07:40:52.301Z,17.70
2019-04-29T07:43:21.118Z,19.45
2019-04-29T07:46:03.561Z,18.97
2019-04-29T07:48:29.441Z,18.42
2019-04-29T07:50:59.526Z,15.93
2019-04-29T07:53:36.740Z,21.93
2019-04-29T07:56:01.648Z,16.83
2019-04-29T07:58:30.365Z,17.40
2019-04-29T08:00:59.091Z,20.17
2019-04-29T08:03:28.293Z,17.77
2019-04-29T08:05:58.755Z,21.80
2019-04-29T08:08:29.591Z,24.93
2019-04-29T08:10:58.369Z,20.53
2019-04-29T08:13:28.259Z,18.95
2019-04-29T08:15:57.156Z,19.93
2019-04-29T08:18:26.058Z,13.68
2019-04-29T08:20:54.761Z,23.10
2019-04-29T08:23:23.861Z,21.47
2019-04-29T08:25:57.215Z,23.70
2019-04-29T08:28:23.277Z,18.63
2019-04-29T08:30:52.022Z,20.77
2019-04-29T08:33:21.090Z,19.42
2019-04-29T08:35:49.790Z,16.10
2019-04-29T08:38:18.517Z,20.87
2019-04-29T08:40:50.234Z,20.93
2019-04-29T08:43:36.354Z,20.53
2019-04-29T08:46:08.337Z,19.87
2019-04-29T08:48:37.145Z,24.60
2019-04-29T08:51:05.865Z,20.43
2019-04-29T08:53:34.727Z,19.57
2019-04-29T08:56:05.663Z,18.30
2019-04-29T08:58:34.494Z,26.97
2019-04-29T09:01:03.690Z,18.93
2019-04-29T09:03:40.051Z,23.37
2019-04-29T09:06:05.755Z,21.80
2019-04-29T09:08:34.603Z,18.00
2019-04-29T09:11:08.096Z,22.80
2019-04-29T09:13:36.343Z,22.63
2019-04-29T09:16:05.079Z,22.62
2019-04-29T09:18:33.769Z,18.55
2019-04-29T09:21:02.502Z,22.00
2019-04-29T09:23:33.046Z,22.03
2019-04-29T09:26:12.296Z,23.22
2019-04-29T09:28:41.489Z,18.83
2019-04-29T09:31:10.213Z,21.07
2019-04-29T09:33:38.985Z,19.42
2019-04-29T09:36:09.572Z,20.33
2019-04-29T09:38:38.534Z,23.00
2019-04-29T09:41:23.999Z,19.07
2019-04-29T09:44:12.142Z,19.03
2019-04-29T09:46:41.211Z,22.20
2019-04-29T09:49:10.020Z,20.83
2019-04-29T09:51:38.810Z,23.50
2019-04-29T09:54:09.600Z,24.43
2019-04-29T09:56:38.323Z,21.57
2019-04-29T09:59:24.239Z,20.02
2019-04-29T10:02:01.481Z,21.95
2019-04-29T10:04:39.230Z,23.35
2019-04-29T10:07:10.534Z,20.00
2019-04-29T10:09:39.346Z,17.23
2019-04-29T10:12:08.329Z,19.70
2019-04-29T10:14:37.053Z,20.90
2019-04-29T10:17:34.310Z,21.07
2019-04-29T10:20:08.325Z,22.53
2019-04-29T10:22:37.237Z,22.30
2019-04-29T10:25:07.940Z,20.03
2019-04-29T10:27:36.678Z,21.07
2019-04-29T10:30:06.768Z,19.60
2019-04-29T10:32:37.742Z,23.00
2019-04-29T10:35:08.821Z,24.27
2019-04-29T10:37:37.744Z,20.97
2019-04-29T10:40:18.997Z,19.63
2019-04-29T10:42:55.630Z,22.30
2019-04-29T10:45:35.069Z,22.67
2019-04-29T10:48:16.540Z,20.10
2019-04-29T10:50:47.169Z,17.40
2019-04-29T10:53:17.389Z,17.20
2019-04-29T10:55:46.413Z,17.43
2019-04-29T10:58:15.517Z,16.30
2019-04-29T11:01:29.157Z,16.90
2019-04-29T11:04:00.887Z,16.93
2019-04-29T11:06:31.506Z,12.60
2019-04-29T11:09:23.588Z,14.23
2019-04-29T11:11:52.461Z,14.73
2019-04-29T11:14:24.526Z,16.57
2019-04-29T11:16:51.804Z,17.07
2019-04-29T11:19:20.531Z,19.30
2019-04-29T11:21:49.553Z,19.27
2019-04-29T11:24:34.394Z,18.03
2019-04-29T11:27:16.281Z,17.13
2019-04-29T11:29:45.315Z,18.03
2019-04-29T11:32:24.818Z,15.70
2019-04-29T11:35:02.849Z,16.13
2019-04-29T11:37:32.637Z,12.50
2019-04-29T11:40:01.670Z,14.07
2019-04-29T11:42:31.862Z,11.40
2019-04-29T11:45:03.737Z,11.43
2019-04-29T11:47:32.946Z,11.17
2019-04-29T11:50:13.702Z,12.70
2019-04-29T11:52:42.505Z,10.83
2019-04-29T11:55:14.114Z,11.50
2019-04-29T11:57:58.063Z,10.20
2019-04-29T12:00:51.800Z,10.93
2019-04-29T12:03:19.982Z,10.90
2019-04-29T12:05:52.813Z,10.17
2019-04-29T12:08:21.685Z,13.93
2019-04-29T12:11:06.151Z,8.40
2019-04-29T12:13:31.685Z,12.67
2019-04-29T12:16:19.735Z,13.90
2019-04-29T12:18:51.668Z,10.10
2019-04-29T12:21:25.702Z,12.07
2019-04-29T12:23:56.694Z,15.95
2019-04-29T12:26:25.845Z,17.50
2019-04-29T12:28:54.701Z,15.37
2019-04-29T12:31:32.530Z,15.03
2019-04-29T12:34:12.162Z,11.73
2019-04-29T12:36:55.107Z,12.87
2019-04-29T12:39:43.149Z,16.57
2019-04-29T12:42:15.907Z,14.93
2019-04-29T12:44:51.371Z,15.55
2019-04-29T12:47:45.422Z,13.43
2019-04-29T12:50:17.524Z,13.53
2019-04-29T12:52:46.011Z,16.33
2019-04-29T12:55:20.238Z,12.90
2019-04-29T12:57:47.658Z,14.77
2019-04-29T13:00:22.378Z,17.10
2019-04-29T13:03:06.801Z,17.25
2019-04-29T13:05:58.886Z,15.85
2019-04-29T13:08:39.299Z,18.43
2019-04-29T13:11:08.297Z,16.23
2019-04-29T13:13:37.217Z,20.13
2019-04-29T13:16:20.816Z,16.37
2019-04-29T13:19:20.186Z,26.37
2019-04-29T13:21:46.242Z,23.03
2019-04-29T13:24:23.797Z,23.73
2019-04-29T13:26:45.651Z,24.83
2019-04-29T13:29:27.023Z,22.80
2019-04-29T13:31:45.823Z,15.03
2019-04-29T13:34:24.041Z,25.77
2019-04-29T13:37:06.158Z,17.07
2019-04-29T13:39:38.580Z,22.27
2019-04-29T13:41:57.546Z,21.63
2019-04-29T13:44:24.646Z,24.30
2019-04-29T13:47:05.186Z,25.70
2019-04-29T13:49:40.644Z,20.83
2019-04-29T13:52:09.825Z,23.27
2019-04-29T13:54:42.273Z,24.17
2019-04-29T13:57:15.579Z,17.67
2019-04-29T14:00:10.898Z,18.30
2019-04-29T14:02:43.526Z,30.23
2019-04-29T14:05:13.469Z,24.07
2019-04-29T14:07:42.595Z,24.40
2019-04-29T14:10:15.036Z,22.93
2019-04-29T14:12:48.538Z,22.93
2019-04-29T14:15:14.142Z,20.53
2019-04-29T14:17:42.850Z,26.57
2019-04-29T14:20:15.987Z,20.77
2019-04-29T14:22:42.309Z,17.50
2019-04-29T14:25:13.421Z,20.77
2019-04-29T14:27:41.865Z,19.50
2019-04-29T14:30:15.272Z,16.50
2019-04-29T14:32:47.006Z,17.37
2019-04-29T14:35:21.120Z,22.10
2019-04-29T14:37:55.526Z,16.03
2019-04-29T14:40:20.827Z,21.47
2019-04-29T14:42:58.316Z,24.63
2019-04-29T14:45:45.049Z,19.30
2019-04-29T14:48:41.270Z,17.73
2019-04-29T14:50:58.677Z,20.30
2019-04-29T14:53:27.746Z,18.00
2019-04-29T14:55:56.621Z,18.92
2019-04-29T14:58:25.395Z,17.40
2019-04-29T15:01:08.201Z,16.97
2019-04-29T15:03:55.784Z,19.48
2019-04-29T15:06:24.607Z,19.07
2019-04-29T15:08:55.057Z,21.17
2019-04-29T15:11:31.862Z,18.57
2019-04-29T15:14:03.103Z,19.13
2019-04-29T15:16:37.344Z,14.57
2019-04-29T15:19:25.502Z,16.00
2019-04-29T15:21:59.118Z,19.60
2019-04-29T15:24:32.702Z,19.10
2019-04-29T15:26:59.278Z,21.03
2019-04-29T15:29:28.149Z,14.90
2019-04-29T15:31:58.261Z,19.87
2019-04-29T15:34:27.097Z,15.57
2019-04-29T15:36:55.884Z,17.03
2019-04-29T15:39:25.873Z,14.67
2019-04-29T15:41:55.485Z,17.40
2019-04-29T15:44:24.737Z,18.73
2019-04-29T15:46:53.502Z,20.07
2019-04-29T15:49:24.851Z,14.10
2019-04-29T15:51:54.027Z,20.70
2019-04-29T15:54:25.918Z,18.87
2019-04-29T15:56:53.758Z,18.92
2019-04-29T15:59:22.472Z,19.20
2019-04-29T16:01:51.571Z,14.33
2019-04-29T16:04:27.694Z,18.47
2019-04-29T16:07:17.161Z,15.23
2019-04-29T16:10:07.793Z,18.93
2019-04-29T16:12:45.419Z,20.87
2019-04-29T16:15:12.442Z,20.47
2019-04-29T16:17:41.506Z,18.07
2019-04-29T16:20:10.426Z,22.07
2019-04-29T16:22:39.509Z,18.80
2019-04-29T16:25:11.001Z,21.85
2019-04-29T16:27:41.711Z,21.97
2019-04-29T16:30:09.481Z,16.77
2019-04-29T16:32:40.359Z,15.53
2019-04-29T16:35:10.029Z,24.47
2019-04-29T16:37:38.829Z,19.15
2019-04-29T16:40:08.232Z,18.23
2019-04-29T16:42:48.908Z,23.23
2019-04-29T16:45:18.081Z,30.08
2019-04-29T16:47:48.641Z,28.07
2019-04-29T16:50:17.547Z,23.90
2019-04-29T16:52:46.292Z,27.93
2019-04-29T16:55:15.710Z,29.23
2019-04-29T16:57:44.456Z,35.00
2019-04-29T17:00:15.937Z,29.33
2019-04-29T17:02:45.034Z,32.93
2019-04-29T17:05:14.244Z,25.43
2019-04-29T17:07:43.112Z,34.78
2019-04-29T17:10:32.889Z,38.20
2019-04-29T17:13:01.855Z,35.60
2019-04-29T17:15:31.014Z,82.10
2019-04-29T17:18:00.540Z,58.77
2019-04-29T17:20:29.299Z,86.10
2019-04-29T17:22:58.061Z,97.57
2019-04-29T17:25:26.893Z,238.80
2019-04-29T17:28:24.298Z,136.90
2019-04-29T17:31:12.094Z,191.17
2019-04-29T17:33:49.786Z,139.90
2019-04-29T17:36:23.082Z,298.07
2019-04-29T17:38:48.285Z,206.60
2019-04-29T17:41:17.007Z,151.27
2019-04-29T17:43:53.919Z,105.20
2019-04-29T17:46:39.882Z,73.40
2019-04-29T17:49:14.810Z,87.47
2019-04-29T17:51:43.568Z,70.50
2019-04-29T17:54:15.848Z,71.20
2019-04-29T17:57:10.131Z,50.13
2019-04-29T17:59:56.008Z,70.00
2019-04-29T18:02:42.070Z,93.60
2019-04-29T18:05:17.081Z,75.23
2019-04-29T18:07:57.347Z,66.10
2019-04-29T18:10:38.656Z,72.63
2019-04-29T18:13:06.592Z,120.70
2019-04-29T18:15:51.686Z,77.07
2019-04-29T18:18:17.028Z,67.37
2019-04-29T18:21:03.080Z,60.13
2019-04-29T18:23:38.789Z,69.07
2019-04-29T18:26:12.353Z,60.53
2019-04-29T18:28:41.154Z,54.30
2019-04-29T18:31:11.533Z,54.17
2019-04-29T18:33:40.270Z,71.83
2019-04-29T18:36:19.451Z,83.13
2019-04-29T18:38:42.486Z,64.80
2019-04-29T18:41:10.290Z,58.30
2019-04-29T18:43:39.701Z,58.17
2019-04-29T18:46:12.528Z,51.83
2019-04-29T18:48:39.148Z,57.97
2019-04-29T18:51:08.226Z,60.70
2019-04-29T18:53:37.041Z,58.68
2019-04-29T18:56:05.818Z,65.57
2019-04-29T18:58:35.590Z,83.35
2019-04-29T19:01:05.409Z,73.83
2019-04-29T19:03:47.142Z,86.50
2019-04-29T19:06:15.874Z,55.10
2019-04-29T19:08:45.014Z,78.00
2019-04-29T19:11:15.275Z,79.30
2019-04-29T19:13:48.439Z,64.00
2019-04-29T19:16:21.634Z,63.07
2019-04-29T19:18:47.438Z,73.53
2019-04-29T19:21:16.201Z,78.17
2019-04-29T19:23:45.902Z,74.92
2019-04-29T19:26:18.124Z,65.80
2019-04-29T19:28:45.468Z,68.20
2019-04-29T19:31:15.232Z,97.62
2019-04-29T19:33:46.085Z,70.37
2019-04-29T19:36:20.312Z,89.13
2019-04-29T19:38:47.243Z,79.53
2019-04-29T19:41:16.338Z,74.27
2019-04-29T19:43:48.242Z,77.03
2019-04-29T19:46:24.201Z,58.80
2019-04-29T19:48:47.423Z,82.73
2019-04-29T19:51:18.639Z,93.45
2019-04-29T19:53:49.582Z,66.27
2019-04-29T19:56:23.091Z,83.47
2019-04-29T19:58:49.244Z,90.63
2019-04-29T20:01:27.039Z,89.73
2019-04-29T20:04:06.168Z,59.43
2019-04-29T20:06:37.009Z,64.35
2019-04-29T20:09:14.667Z,69.60
2019-04-29T20:11:37.052Z,68.13
2019-04-29T20:14:17.967Z,67.10
2019-04-29T20:17:17.357Z,57.00
2019-04-29T20:20:05.443Z,61.60
2019-04-29T20:22:36.969Z,56.53
2019-04-29T20:25:06.416Z,57.00
2019-04-29T20:27:37.495Z,70.33
2019-04-29T20:30:15.979Z,69.77
2019-04-29T20:32:37.810Z,62.35
2019-04-29T20:35:08.914Z,65.17
2019-04-29T20:37:38.420Z,79.33
2019-04-29T20:40:07.887Z,56.60
2019-04-29T20:42:40.471Z,45.43
2019-04-29T20:45:08.153Z,62.65
2019-04-29T20:47:38.539Z,63.30
2019-04-29T20:50:09.033Z,72.87
2019-04-29T20:53:01.699Z,64.93
2019-04-29T20:55:27.054Z,68.77
2019-04-29T20:57:55.982Z,63.27
2019-04-29T21:00:26.991Z,74.40
2019-04-29T21:02:56.525Z,78.20
2019-04-29T21:05:27.384Z,70.47
2019-04-29T21:08:02.859Z,57.03
2019-04-29T21:10:27.601Z,62.03
2019-04-29T21:13:08.774Z,63.33
2019-04-29T21:15:39.933Z,51.23
2019-04-29T21:18:10.418Z,58.83
2019-04-29T21:20:39.614Z,61.00
2019-04-29T21:23:08.346Z,64.00
2019-04-29T21:25:38.133Z,65.10
2019-04-29T21:28:06.870Z,68.77
2019-04-29T21:30:42.351Z,66.53
2019-04-29T21:33:08.236Z,62.73
2019-04-29T21:35:45.478Z,77.80
2019-04-29T21:38:30.025Z,63.45
2019-04-29T21:41:03.549Z,54.55
2019-04-29T21:43:35.342Z,104.90
2019-04-29T21:46:05.749Z,95.15
2019-04-29T21:48:36.884Z,104.27
2019-04-29T21:51:06.758Z,80.37
2019-04-29T21:53:40.164Z,74.40
2019-04-29T21:56:09.189Z,68.40
2019-04-29T21:58:37.132Z,103.10
2019-04-29T22:01:07.305Z,84.83
2019-04-29T22:03:36.140Z,70.60
2019-04-29T22:06:05.367Z,90.10
2019-04-29T22:08:35.465Z,84.50
2019-04-29T22:11:06.658Z,88.22
2019-04-29T22:13:38.904Z,89.33
2019-04-29T22:16:06.067Z,96.97
2019-04-29T22:18:35.552Z,82.23
2019-04-29T22:21:06.936Z,57.53
2019-04-29T22:23:35.356Z,92.37
2019-04-29T22:26:05.029Z,77.30
2019-04-29T22:28:35.121Z,77.73
2019-04-29T22:31:07.470Z,86.53
2019-04-29T22:33:38.470Z,68.43
2019-04-29T22:36:10.276Z,113.73
2019-04-29T22:38:36.669Z,101.37
2019-04-29T22:41:11.921Z,74.03
2019-04-29T22:43:52.781Z,88.60
2019-04-29T22:46:21.515Z,110.93
2019-04-29T22:48:51.053Z,108.67
2019-04-29T22:51:20.053Z,79.63
2019-04-29T22:53:48.761Z,68.00
2019-04-29T22:56:17.489Z,73.67
2019-04-29T22:58:47.405Z,66.07
2019-04-29T23:01:17.788Z,76.50
2019-04-29T23:03:47.119Z,68.40
2019-04-29T23:06:15.969Z,73.97
2019-04-29T23:08:45.015Z,66.83
2019-04-29T23:11:14.501Z,64.03
2019-04-29T23:13:43.278Z,69.30
2019-04-29T23:16:11.999Z,76.83
2019-04-29T23:18:43.540Z,74.77
2019-04-29T23:21:29.386Z,61.03
2019-04-29T23:24:17.497Z,82.73
2019-04-29T23:26:46.324Z,81.53
2019-04-29T23:29:15.665Z,87.90
2019-04-29T23:31:45.379Z,81.10
2019-04-29T23:34:15.538Z,75.27
2019-04-29T23:36:48.996Z,81.25
2019-04-29T23:39:15.433Z,91.00
2019-04-29T23:41:45.110Z,65.60
2019-04-29T23:44:14.053Z,71.17
2019-04-29T23:46:42.768Z,77.10
2019-04-29T23:49:11.543Z,82.53
2019-04-29T23:51:40.311Z,78.60
2019-04-29T23:54:09.022Z,65.10
2019-04-29T23:56:52.850Z,73.50
2019-04-29T23:59:26.236Z,75.50
